createdAt,value
2023-01-04T00:00:02.241Z,131.94
2023-01-04T00:15:01.526Z,131.94
2023-01-04T00:30:02.225Z,132.2
2023-01-04T00:45:01.988Z,131.86
2023-01-04T01:00:02.287Z,131.62
2023-01-04T01:15:03.145Z,131.21
2023-01-04T01:30:02.223Z,131.13
2023-01-04T01:45:01.961Z,130.97
2023-01-04T02:00:02.187Z,130.65
2023-01-04T02:15:01.524Z,130.65
2023-01-04T02:30:02.238Z,130.65
2023-01-04T02:45:02.029Z,130.4
2023-01-04T03:00:02.327Z,130.36
2023-01-04T03:15:02.156Z,130.48
2023-01-04T03:30:02.243Z,130.89
2023-01-04T03:45:07.836Z,131.29
2023-01-04T04:00:02.267Z,131.7
2023-01-04T04:15:03.286Z,132.18
2023-01-04T04:30:02.219Z,132.51
2023-01-04T04:45:01.814Z,132.91
2023-01-04T05:00:02.226Z,133.2
2023-01-04T05:15:01.898Z,133.6
2023-01-04T05:30:02.255Z,133.88
2023-01-04T05:45:01.409Z,133.88
2023-01-04T06:00:02.284Z,133.88
2023-01-04T06:15:01.901Z,133.8
2023-01-04T06:30:02.326Z,133.72
2023-01-04T06:45:01.951Z,133.72
2023-01-04T07:00:02.229Z,133.72
2023-01-04T07:15:02.799Z,133.4
2023-01-04T07:30:02.140Z,133.24
2023-01-04T07:45:01.355Z,132.99
2023-01-04T08:00:01.669Z,132.75
2023-01-04T08:15:02.343Z,132.26
2023-01-04T08:30:01.816Z,131.37
2023-01-04T08:45:02.483Z,130.8
2023-01-04T09:00:03.205Z,129.11
2023-01-04T09:15:02.151Z,128.14
2023-01-04T09:30:03.129Z,125.14
2023-01-04T10:00:01.842Z,115.2
2023-01-04T10:15:02.112Z,111.54
2023-01-04T10:30:02.044Z,107.37
2023-01-04T10:45:06.717Z,109.6
2023-01-04T11:00:01.481Z,110.49
2023-01-04T11:15:02.221Z,113.57
2023-01-04T11:30:02.174Z,114.38
2023-01-04T11:45:01.960Z,112.3
2023-01-04T12:00:01.684Z,107.17
2023-01-04T12:15:02.073Z,108.6
2023-01-04T12:30:01.352Z,106.36
2023-01-04T12:45:01.585Z,107.9
2023-01-04T13:00:01.974Z,109.6
2023-01-04T13:15:03.070Z,109.52
2023-01-04T13:30:01.551Z,108.22
2023-01-04T13:45:18.933Z,105.43
2023-01-04T14:00:02.056Z,102.15
2023-01-04T14:15:01.437Z,106.8
2023-01-04T14:30:07.341Z,107.29
2023-01-04T14:45:02.205Z,110.65
2023-01-04T15:00:03.106Z,109.68
2023-01-04T15:15:02.019Z,109.52
2023-01-04T15:30:03.018Z,112.59
2023-01-04T15:45:02.071Z,115.35
2023-01-04T16:00:01.593Z,118.34
2023-01-04T16:15:02.274Z,119.96
2023-01-04T16:30:02.118Z,120.12
2023-01-04T16:45:02.264Z,120.28
2023-01-04T17:00:01.607Z,120.45
2023-01-04T17:30:01.650Z,106.8
2023-01-04T17:45:02.468Z,101.79
2023-01-04T18:00:02.499Z,101.26
2023-01-04T18:15:02.326Z,103.57
2023-01-04T18:30:02.280Z,103
2023-01-04T18:45:01.611Z,103.33
2023-01-04T19:00:01.902Z,103.61
2023-01-04T19:15:02.827Z,100.33
2023-01-04T19:30:02.225Z,99.24
2023-01-04T19:45:01.394Z,98.11
2023-01-04T20:00:01.744Z,95.88
2023-01-04T20:15:01.688Z,90.29
2023-01-04T20:30:02.441Z,90.54
2023-01-04T20:45:02.160Z,91.71
2023-01-04T21:00:01.465Z,93.37
2023-01-04T21:15:02.127Z,87.7
2023-01-04T21:30:01.412Z,88.72
2023-01-04T21:45:01.617Z,88.68
2023-01-04T22:00:01.884Z,86.5
2023-01-04T22:15:02.948Z,85.84
2023-01-04T22:30:01.507Z,85.44
2023-01-04T22:45:01.724Z,89
2023-01-04T23:00:02.735Z,91.59
2023-01-04T23:15:01.507Z,93.37
2023-01-04T23:30:02.463Z,94.18
2023-01-04T23:45:02.634Z,93.49
